• Join FlightAware (Why Join?)
  • Login
  • US Flag 
10:31AM EST


 

Airport Tracker/Info


-or-


 

Live Flight TrackerFlight Track Log ✈ N143TE ✈ 14-Sep-2013 ✈ KBJJ - KOSU

Flight Track Log - Related Links

Times and Time Zones

All times are in EDT time to prevent confusion due to time zone crossing. See the N143TE flight status page for this flight to view local times or setup timezone preferences in your user account.

Time Position Orientation Groundspeed Altitude Reporting Facility
EDT Latitude Longitude Course Direction KTS MPH feet Rate Location/Type
08:48PM 40.7839 -82.0556 227° Southwest 123 142 4,000  Level Cleveland Center
08:49PM 40.7583 -82.0922 227° Southwest 129 148 4,000  Level Cleveland Center
08:50PM 40.7336 -82.1292 229° Southwest 131 151 4,000  Level Indianapolis Center
08:51PM 40.7103 -82.1636 228° Southwest 128 147 4,000  Level Indianapolis Center
08:52PM 40.6861 -82.1972 227° Southwest 126 145 4,000  Level Indianapolis Center
08:53PM 40.6619 -82.2314 227° Southwest 125 144 4,000  Level Indianapolis Center
08:55PM 40.6392 -82.2664 229° Southwest 125 144 4,000  Level Indianapolis Center
08:56PM 40.6147 -82.3022 228° Southwest 128 147 4,000  Level Indianapolis Center
08:57PM 40.5917 -82.3367 229° Southwest 126 145 4,000  Level Indianapolis Center
08:58PM 40.5675 -82.3703 227° Southwest 125 144 4,000  Level Indianapolis Center
08:59PM 40.5450 -82.4058 230° Southwest 125 144 4,000  Level Indianapolis Center
09:00PM 40.5200 -82.4389 225° Southwest 125 144 4,000  Level Indianapolis Center
09:01PM 40.4956 -82.4733 227° Southwest 126 145 4,000  Level Indianapolis Center
09:01PM 40.4886 -82.4850 232° Southwest 127 146 4,000  Level Indianapolis Center
09:02PM 40.4711 -82.5086 226° Southwest 129 148 4,000  Level Indianapolis Center
09:02PM 40.4639 -82.5253 240° Southwest 129 148 4,000  Level Indianapolis Center
09:03PM 40.4489 -82.5447 225° Southwest 128 147 4,000  Level Indianapolis Center
09:03PM 40.4378 -82.5594 225° Southwest 127 146 4,000  Level Indianapolis Center
09:04PM 40.4233 -82.5775 224° Southwest 127 146 4,000  Level Indianapolis Center
09:04PM 40.4158 -82.5919 236° Southwest 128 147 4,000  Level Indianapolis Center
09:05PM 40.4000 -82.6131 225° Southwest 128 147 4,000  Level Indianapolis Center
09:05PM 40.3919 -82.6264 232° Southwest 128 147 4,000  Level Indianapolis Center
09:06PM 40.3761 -82.6483 227° Southwest 128 147 4,000  Level Indianapolis Center
09:06PM 40.3675 -82.6611 229° Southwest 127 146 4,000  Level Indianapolis Center
09:07PM 40.3517 -82.6819 225° Southwest 126 145 4,000  Level Indianapolis Center
09:07PM 40.3436 -82.6931 226° Southwest 126 145 4,000  Level Indianapolis Center
09:08PM 40.3272 -82.7164 227° Southwest 127 146 4,000  Level Indianapolis Center
09:08PM 40.3167 -82.7356 234° Southwest 127 146 4,000  Level Indianapolis Center
09:09PM 40.3058 -82.7519 229° Southwest 127 146 4,000  Level Indianapolis Center
09:09PM 40.2928 -82.7672 222° Southwest 127 146 4,000  Level Indianapolis Center
09:10PM 40.2708 -82.7994 228° Southwest 127 146 4,000  Level Indianapolis Center
09:11PM 40.2467 -82.8342 228° Southwest 127 146 4,000 -246 Level Indianapolis Center
09:12PM 40.2222 -82.8711 229° Southwest 138 159 3,500 -495 Descending Indianapolis Center
09:13PM 40.1992 -82.9008 225° Southwest 138 159 3,100 -455 Descending Indianapolis Center
09:13PM 40.1906 -82.9156 233° Southwest 151 174 3,000 -98 Descending Indianapolis Center
09:14PM 40.1714 -82.9403 225° Southwest 144 166 3,000  Level Indianapolis Center
09:14PM 40.1667 -82.9472 228° Southwest 139 160 3,000  Level Indianapolis Center
09:15PM 40.1467 -82.9742 226° Southwest 138 159 3,000 -179 Level Indianapolis Center
09:15PM 40.1378 -82.9864 226° Southwest 130 150 2,800 -590 Descending Indianapolis Center
09:16PM 40.1169 -83.0058 216° Southwest 136 157 2,400 -700 Descending Indianapolis Center
09:16PM 40.1056 -83.0142 209° Southwest 138 159 2,100 -295 Descending Indianapolis Center
09:17PM 40.0867 -83.0242 202° Southwest 122 140 2,100 -122 Level Indianapolis Center
09:17PM 40.0833 -83.0269 213° Southwest 91 105 2,000 -1,000 Descending Indianapolis Center
09:18PM 40.0781 -83.0489 253° West 98 113 1,100 -517 Descending Indianapolis Center
09:19PM 40.0756 -83.0792 264° West 95 109 1,000 -98 Descending Indianapolis Center